This is the latest recevied weather packets stored in our database for station/object SALIDA. If no packets are shown the sender has not sent any weather packets the latest 10 day(s).
| Time | Temp. | Humidity | Pressure | Rain* | Wind** | Luminosity | Snow |
|---|---|---|---|---|---|---|---|
| 1788462724 | 27.78° C | 25% | 1002.1 hPa | 0 mm | - | - | - |
| 1788461824 | 27.22° C | 26% | 1002.3 hPa | 0 mm | - | - | - |
| 1788460924 | 26.11° C | 30% | 1002.6 hPa | 0 mm | - | - | - |
| 1788460024 | 26.11° C | 32% | 1002.9 hPa | 0 mm | - | - | - |
| 1788459124 | 25.56° C | 32% | 1003.4 hPa | 0 mm | - | - | - |
| 1788458226 | 25.56° C | 31% | 1003.7 hPa | 0 mm | - | - | - |
| 1788456424 | 23.89° C | 36% | 1004.4 hPa | 0 mm | - | - | - |
| 1788455524 | 23.89° C | 37% | 1004.7 hPa | 0 mm | - | - | - |
| 1788454624 | 23.33° C | 38% | 1004.8 hPa | 0 mm | - | - | - |
| 1788453724 | 22.78° C | 37% | 1005.2 hPa | 0 mm | - | - | - |
| 1788452824 | 22.78° C | 38% | 1005.1 hPa | 0 mm | - | - | - |
| 1788451924 | 22.22° C | 39% | 1005.2 hPa | 0 mm | - | - | - |
| 1788451024 | 22.22° C | 39% | 1005.1 hPa | 0 mm | - | - | - |
| 1788450124 | 21.67° C | 39% | 1005 hPa | 0 mm | - | - | - |
| 1788449224 | 21.67° C | 40% | 1005.1 hPa | 0 mm | - | - | - |
| 1788448324 | 21.11° C | 43% | 1005.3 hPa | 0 mm | - | - | - |
| 1788447424 | 20° C | 45% | 1005.5 hPa | 0 mm | - | - | - |
| 1788446524 | 17.78° C | 54% | 1005.6 hPa | 0 mm | - | - | - |
| 1788444725 | 13.33° C | 62% | 1005.8 hPa | 0 mm | - | - | - |
| 1788443825 | 12.22° C | 66% | 1005.6 hPa | 0 mm | - | - | - |
| 1788442925 | 11.11° C | 71% | 1005.8 hPa | 0 mm | - | - | - |
| 1788442025 | 10° C | 74% | 1005.7 hPa | 0 mm | - | - | - |
| 1788441125 | 9.44° C | 73% | 1005.6 hPa | 0 mm | - | - | - |
| 1788440225 | 9.44° C | 73% | 1005.6 hPa | 0 mm | - | - | - |
| 1788439325 | 10° C | 71% | 1005.3 hPa | 0 mm | - | - | - |
* Rain latest hour (hover to see other rain measurements)
** Current wind speed in m/s (hover to see current wind gust speed)